createdAt,value
2022-09-07T00:00:46.620Z,0
2022-09-07T00:01:46.627Z,0
2022-09-07T00:02:47.025Z,0
2022-09-07T00:03:46.647Z,0
2022-09-07T00:04:46.956Z,0
2022-09-07T00:05:46.631Z,0
2022-09-07T00:06:46.478Z,0
2022-09-07T00:07:49.425Z,0
2022-09-07T00:08:46.669Z,0
2022-09-07T00:09:46.641Z,0
2022-09-07T00:10:46.650Z,0
2022-09-07T00:11:46.641Z,0
2022-09-07T00:12:46.643Z,0
2022-09-07T00:13:46.661Z,0
2022-09-07T00:14:46.651Z,0
2022-09-07T00:15:46.858Z,0
2022-09-07T00:16:46.846Z,0
2022-09-07T00:17:46.671Z,0
2022-09-07T00:18:52.073Z,0
2022-09-07T00:19:46.660Z,0
2022-09-07T00:20:46.649Z,0
2022-09-07T00:21:46.697Z,0
2022-09-07T00:22:46.669Z,0
2022-09-07T00:23:46.680Z,0
2022-09-07T00:24:46.668Z,0
2022-09-07T00:25:48.401Z,0
2022-09-07T00:26:46.659Z,0
2022-09-07T00:27:46.669Z,0
2022-09-07T00:28:46.686Z,0
2022-09-07T00:29:49.694Z,0
2022-09-07T00:30:46.686Z,0
2022-09-07T00:31:47.079Z,0
2022-09-07T00:32:46.681Z,0
2022-09-07T00:33:46.692Z,0
2022-09-07T00:34:49.685Z,0
2022-09-07T00:35:46.691Z,0
2022-09-07T00:36:46.684Z,0
2022-09-07T00:37:46.681Z,0
2022-09-07T00:38:46.711Z,0
2022-09-07T00:39:46.930Z,0
2022-09-07T00:40:46.681Z,0
2022-09-07T00:41:46.699Z,0
2022-09-07T00:42:46.531Z,0
2022-09-07T00:43:46.710Z,0
2022-09-07T00:44:46.713Z,0
2022-09-07T00:45:46.703Z,0
2022-09-07T00:46:47.154Z,0
2022-09-07T00:47:46.713Z,0
2022-09-07T00:48:46.730Z,0
2022-09-07T00:49:46.703Z,0
2022-09-07T00:50:46.716Z,0
2022-09-07T00:51:46.720Z,0
2022-09-07T00:52:46.733Z,0
2022-09-07T00:53:46.731Z,0
2022-09-07T00:54:46.716Z,0
2022-09-07T00:55:46.723Z,0
2022-09-07T00:56:46.726Z,0
2022-09-07T00:57:46.721Z,0
2022-09-07T00:58:46.740Z,0
2022-09-07T00:59:46.723Z,0
2022-09-07T01:00:46.740Z,0
2022-09-07T01:01:49.865Z,0
2022-09-07T01:02:47.429Z,0
2022-09-07T01:03:46.750Z,0
2022-09-07T01:04:46.739Z,0
2022-09-07T01:05:46.727Z,0
2022-09-07T01:06:46.741Z,0
2022-09-07T01:07:46.739Z,0
2022-09-07T01:08:46.761Z,0
2022-09-07T01:09:46.751Z,0
2022-09-07T01:10:46.750Z,0
2022-09-07T01:11:46.762Z,0
2022-09-07T01:12:49.608Z,0
2022-09-07T01:13:46.775Z,0
2022-09-07T01:14:46.778Z,0
2022-09-07T01:15:47.002Z,0
2022-09-07T01:16:46.763Z,0
2022-09-07T01:17:49.777Z,0
2022-09-07T01:18:46.614Z,0
2022-09-07T01:19:46.751Z,0
2022-09-07T01:20:46.755Z,0
2022-09-07T01:21:46.764Z,0
2022-09-07T01:22:46.605Z,0
2022-09-07T01:23:49.629Z,0
2022-09-07T01:24:46.618Z,0
2022-09-07T01:25:46.767Z,0
2022-09-07T01:26:46.774Z,0
2022-09-07T01:27:46.781Z,0
2022-09-07T01:28:48.228Z,0
2022-09-07T01:29:46.795Z,0
2022-09-07T01:30:46.974Z,0
2022-09-07T01:31:46.782Z,0
2022-09-07T01:32:46.799Z,0
2022-09-07T01:33:46.812Z,0
2022-09-07T01:34:49.814Z,0
2022-09-07T01:35:46.784Z,0
2022-09-07T01:36:46.799Z,0
2022-09-07T01:37:46.805Z,0
2022-09-07T01:38:46.818Z,0
2022-09-07T01:39:50.248Z,0
2022-09-07T01:40:46.641Z,0
2022-09-07T01:41:46.794Z,0
2022-09-07T01:42:46.797Z,0
2022-09-07T01:43:46.861Z,0
2022-09-07T01:44:46.809Z,0
2022-09-07T01:45:49.828Z,0
2022-09-07T01:46:47.247Z,0
2022-09-07T01:47:46.819Z,0
2022-09-07T01:48:46.669Z,0
2022-09-07T01:49:46.660Z,0
2022-09-07T01:50:49.798Z,0
2022-09-07T01:51:46.819Z,0
2022-09-07T01:52:46.816Z,0
2022-09-07T01:53:46.838Z,0
2022-09-07T01:54:46.827Z,0
2022-09-07T01:55:46.823Z,0
2022-09-07T01:56:49.890Z,0
2022-09-07T01:57:46.829Z,0
2022-09-07T01:58:46.862Z,0
2022-09-07T01:59:46.836Z,0
2022-09-07T02:00:46.828Z,0
2022-09-07T02:01:50.452Z,0
2022-09-07T02:02:47.248Z,0
2022-09-07T02:03:46.852Z,0
2022-09-07T02:04:46.843Z,0
2022-09-07T02:05:46.687Z,0
2022-09-07T02:06:46.855Z,0
2022-09-07T02:07:49.637Z,0
2022-09-07T02:08:46.884Z,0
2022-09-07T02:09:46.845Z,0
2022-09-07T02:10:46.859Z,0
2022-09-07T02:11:46.853Z,0
2022-09-07T02:12:49.918Z,0
2022-09-07T02:13:46.871Z,0
2022-09-07T02:14:52.608Z,0
2022-09-07T02:15:47.279Z,0
2022-09-07T02:16:46.862Z,0
2022-09-07T02:17:46.870Z,0
2022-09-07T02:18:46.881Z,0
2022-09-07T02:19:46.724Z,0
2022-09-07T02:20:46.731Z,0
2022-09-07T02:21:46.906Z,0
2022-09-07T02:22:46.901Z,0
2022-09-07T02:23:49.956Z,0
2022-09-07T02:24:46.903Z,0
2022-09-07T02:25:46.871Z,0
2022-09-07T02:26:46.744Z,0
2022-09-07T02:27:46.887Z,0
2022-09-07T02:28:46.906Z,0
2022-09-07T02:29:46.929Z,0
2022-09-07T02:30:47.311Z,0
2022-09-07T02:31:46.726Z,0
2022-09-07T02:32:46.913Z,0
2022-09-07T02:33:46.931Z,0
2022-09-07T02:34:49.667Z,0
2022-09-07T02:35:46.742Z,0
2022-09-07T02:36:46.900Z,0
2022-09-07T02:37:46.907Z,0
2022-09-07T02:38:46.762Z,0
2022-09-07T02:39:47.194Z,0
2022-09-07T02:40:46.912Z,0
2022-09-07T02:41:46.932Z,0
2022-09-07T02:42:46.928Z,0
2022-09-07T02:43:46.954Z,0
2022-09-07T02:44:46.919Z,0
2022-09-07T02:45:49.880Z,0
2022-09-07T02:46:47.245Z,0
2022-09-07T02:47:46.920Z,0
2022-09-07T02:48:46.933Z,0
2022-09-07T02:49:46.927Z,0
2022-09-07T02:50:46.927Z,0
2022-09-07T02:51:46.943Z,0
2022-09-07T02:52:46.947Z,0
2022-09-07T02:53:46.955Z,0
2022-09-07T02:54:46.947Z,0
2022-09-07T02:55:46.968Z,0
2022-09-07T02:56:49.742Z,0
2022-09-07T02:57:46.949Z,0
2022-09-07T02:58:46.956Z,0
2022-09-07T02:59:46.953Z,0
2022-09-07T03:00:46.939Z,0
2022-09-07T03:01:50.384Z,0
2022-09-07T03:02:47.295Z,0
2022-09-07T03:03:46.804Z,0
2022-09-07T03:04:46.958Z,0
2022-09-07T03:05:46.979Z,0
2022-09-07T03:06:46.956Z,0
2022-09-07T03:07:51.007Z,0
2022-09-07T03:08:46.982Z,0
2022-09-07T03:09:46.953Z,0
2022-09-07T03:10:46.948Z,0
2022-09-07T03:11:46.963Z,0
2022-09-07T03:12:46.959Z,0
2022-09-07T03:13:46.986Z,0
2022-09-07T03:14:46.966Z,0
2022-09-07T03:15:47.236Z,0
2022-09-07T03:16:46.961Z,0
2022-09-07T03:17:46.967Z,0
2022-09-07T03:18:46.999Z,0
2022-09-07T03:19:46.970Z,0
2022-09-07T03:20:46.964Z,0
2022-09-07T03:21:46.977Z,0
2022-09-07T03:22:46.993Z,0
2022-09-07T03:23:55.268Z,0
2022-09-07T03:24:46.991Z,0
2022-09-07T03:25:46.973Z,0
2022-09-07T03:26:46.992Z,0
2022-09-07T03:27:46.991Z,0
2022-09-07T03:28:50.088Z,0
2022-09-07T03:29:48.881Z,0
2022-09-07T03:30:47.407Z,0
2022-09-07T03:31:46.993Z,0
2022-09-07T03:32:47.002Z,0
2022-09-07T03:33:47.016Z,0
2022-09-07T03:34:46.998Z,0
2022-09-07T03:35:47.013Z,0
2022-09-07T03:36:47.006Z,0
2022-09-07T03:37:47.025Z,0
2022-09-07T03:38:47.032Z,0
2022-09-07T03:39:50.265Z,0
2022-09-07T03:40:47.007Z,0
2022-09-07T03:41:47.041Z,0
2022-09-07T03:42:47.037Z,0
2022-09-07T03:43:47.023Z,0
2022-09-07T03:44:50.094Z,0
2022-09-07T03:45:47.269Z,0
2022-09-07T03:46:47.034Z,0
2022-09-07T03:47:47.029Z,0
2022-09-07T03:48:47.085Z,0
2022-09-07T03:49:47.033Z,0
2022-09-07T03:50:49.795Z,0
2022-09-07T03:51:47.027Z,0
2022-09-07T03:52:47.027Z,0
2022-09-07T03:53:46.878Z,0
2022-09-07T03:54:47.038Z,0
2022-09-07T03:55:49.787Z,0
2022-09-07T03:56:47.030Z,0
2022-09-07T03:57:47.062Z,0
2022-09-07T03:58:47.077Z,0
2022-09-07T03:59:47.050Z,0
2022-09-07T04:00:47.046Z,0
2022-09-07T04:01:50.418Z,0
2022-09-07T04:02:47.357Z,0
2022-09-07T04:03:47.135Z,0
2022-09-07T04:04:47.051Z,0
2022-09-07T04:05:47.088Z,0
2022-09-07T04:06:49.826Z,0
2022-09-07T04:07:47.061Z,0
2022-09-07T04:08:47.097Z,0
2022-09-07T04:09:47.054Z,0
2022-09-07T04:10:47.059Z,0
2022-09-07T04:11:47.077Z,0
2022-09-07T04:12:49.955Z,0
2022-09-07T04:13:47.104Z,0
2022-09-07T04:14:47.121Z,0
2022-09-07T04:15:49.042Z,0
2022-09-07T04:16:47.457Z,0
2022-09-07T04:17:49.922Z,0
2022-09-07T04:18:47.107Z,0
2022-09-07T04:19:47.088Z,0
2022-09-07T04:20:47.096Z,0
2022-09-07T04:21:47.093Z,0
2022-09-07T04:22:47.742Z,0
2022-09-07T04:23:50.114Z,0
2022-09-07T04:24:47.089Z,0
2022-09-07T04:25:47.090Z,0
2022-09-07T04:26:47.091Z,0
2022-09-07T04:27:47.116Z,4
2022-09-07T04:28:49.922Z,4
2022-09-07T04:29:47.099Z,0
2022-09-07T04:30:47.434Z,0
2022-09-07T04:31:47.085Z,4
2022-09-07T04:32:47.113Z,4
2022-09-07T04:33:47.150Z,4
2022-09-07T04:34:50.106Z,4
2022-09-07T04:35:47.138Z,4
2022-09-07T04:36:47.105Z,4
2022-09-07T04:37:47.105Z,4
2022-09-07T04:38:47.152Z,4
2022-09-07T04:39:50.483Z,4
2022-09-07T04:40:47.114Z,4
2022-09-07T04:41:47.128Z,8
2022-09-07T04:42:47.118Z,8
2022-09-07T04:43:47.140Z,12
2022-09-07T04:44:47.120Z,8
2022-09-07T04:45:50.638Z,12
2022-09-07T04:46:47.134Z,12
2022-09-07T04:47:47.123Z,16
2022-09-07T04:48:47.147Z,16
2022-09-07T04:49:47.129Z,16
2022-09-07T04:50:50.189Z,20
2022-09-07T04:51:47.156Z,20
2022-09-07T04:52:47.138Z,24
2022-09-07T04:53:47.159Z,24
2022-09-07T04:54:47.136Z,28
2022-09-07T04:55:46.994Z,28
2022-09-07T04:56:47.013Z,32
2022-09-07T04:57:47.164Z,32
2022-09-07T04:58:47.180Z,32
2022-09-07T04:59:47.152Z,36
2022-09-07T05:00:47.173Z,40
2022-09-07T05:01:50.233Z,44
2022-09-07T05:02:47.566Z,48
2022-09-07T05:03:47.178Z,52
2022-09-07T05:04:47.158Z,60
2022-09-07T05:05:47.163Z,64
2022-09-07T05:06:47.167Z,68
2022-09-07T05:07:47.178Z,72
2022-09-07T05:08:47.189Z,76
2022-09-07T05:09:47.161Z,76
2022-09-07T05:10:47.198Z,80
2022-09-07T05:11:47.170Z,84
2022-09-07T05:12:50.177Z,84
2022-09-07T05:13:47.202Z,84
2022-09-07T05:14:47.191Z,80
2022-09-07T05:15:47.272Z,80
2022-09-07T05:16:47.644Z,84
2022-09-07T05:17:47.248Z,80
2022-09-07T05:18:47.195Z,80
2022-09-07T05:19:47.218Z,84
2022-09-07T05:20:47.201Z,84
2022-09-07T05:21:47.200Z,88
2022-09-07T05:22:47.200Z,88
2022-09-07T05:23:49.991Z,84
2022-09-07T05:24:47.188Z,88
2022-09-07T05:25:47.192Z,92
2022-09-07T05:26:47.190Z,88
2022-09-07T05:27:47.198Z,88
2022-09-07T05:28:47.607Z,88
2022-09-07T05:31:19.104Z,88
2022-09-07T05:32:32.018Z,76
2022-09-07T05:34:33.835Z,68
2022-09-07T05:34:43.337Z,68
2022-09-07T05:35:43.061Z,64
2022-09-07T05:36:43.222Z,64
2022-09-07T05:37:43.198Z,64
2022-09-07T05:38:43.212Z,64
2022-09-07T05:39:44.213Z,64
2022-09-07T05:40:47.473Z,64
2022-09-07T05:41:43.213Z,60
2022-09-07T05:42:43.237Z,64
2022-09-07T05:44:45.574Z,64
2022-09-07T05:44:55.387Z,64
2022-09-07T05:45:58.450Z,64
2022-09-07T05:46:55.344Z,68
2022-09-07T05:47:55.342Z,68
2022-09-07T05:48:55.346Z,72
2022-09-07T05:49:59.479Z,72
2022-09-07T05:50:58.489Z,72
2022-09-07T05:51:55.342Z,76
2022-09-07T05:52:55.428Z,84
2022-09-07T05:53:55.358Z,88
2022-09-07T05:55:19.605Z,92
2022-09-07T05:55:55.368Z,96
2022-09-07T05:56:58.463Z,100
2022-09-07T05:57:55.363Z,104
2022-09-07T05:58:55.369Z,108
2022-09-07T05:59:55.385Z,112
2022-09-07T06:00:55.374Z,120
2022-09-07T06:01:59.049Z,132
2022-09-07T06:02:55.986Z,136
2022-09-07T06:03:55.380Z,148
2022-09-07T06:04:55.397Z,152
2022-09-07T06:05:55.380Z,156
2022-09-07T06:07:27.581Z,152
2022-09-07T06:07:58.424Z,152
2022-09-07T06:08:55.410Z,148
2022-09-07T06:10:57.079Z,148
2022-09-07T06:11:06.478Z,148
2022-09-07T06:12:06.435Z,168
2022-09-07T06:13:06.440Z,180
2022-09-07T06:14:09.289Z,144
2022-09-07T06:15:06.459Z,148
2022-09-07T06:16:06.520Z,152
2022-09-07T06:17:06.542Z,168
2022-09-07T06:18:06.452Z,168
2022-09-07T06:19:06.495Z,172
2022-09-07T06:20:06.453Z,180
2022-09-07T06:21:06.452Z,192
2022-09-07T06:22:06.449Z,200
2022-09-07T06:23:06.277Z,212
2022-09-07T06:24:06.451Z,224
2022-09-07T06:25:09.583Z,224
2022-09-07T06:26:06.444Z,224
2022-09-07T06:27:06.466Z,228
2022-09-07T06:28:06.463Z,232
2022-09-07T06:29:06.495Z,236
2022-09-07T06:30:06.485Z,240
2022-09-07T06:31:06.516Z,244
2022-09-07T06:32:53.646Z,264
2022-09-07T06:33:06.304Z,268
2022-09-07T06:34:06.305Z,276
2022-09-07T06:35:06.494Z,284
2022-09-07T06:36:09.276Z,284
2022-09-07T06:37:06.488Z,280
2022-09-07T06:38:06.507Z,272
2022-09-07T06:39:06.473Z,264
2022-09-07T06:40:06.741Z,252
2022-09-07T06:42:03.114Z,228
2022-09-07T06:43:12.481Z,216
2022-09-07T06:44:12.328Z,212
2022-09-07T06:45:12.493Z,208
2022-09-07T06:47:12.514Z,212
2022-09-07T06:47:21.707Z,212
2022-09-07T06:48:21.706Z,220
2022-09-07T06:49:21.706Z,232
2022-09-07T06:50:21.728Z,252
2022-09-07T06:51:21.710Z,268
2022-09-07T06:52:21.795Z,284
2022-09-07T06:53:53.172Z,304
2022-09-07T06:55:03.927Z,324
2022-09-07T06:56:03.041Z,336
2022-09-07T06:57:03.127Z,336
2022-09-07T06:58:03.006Z,344
2022-09-07T06:59:03.000Z,348
2022-09-07T07:00:03.032Z,740
2022-09-07T07:01:03.177Z,348
2022-09-07T07:02:02.994Z,308
2022-09-07T07:03:06.086Z,304
2022-09-07T07:04:03.001Z,312
2022-09-07T07:05:03.011Z,336
2022-09-07T07:06:03.024Z,360
2022-09-07T07:07:03.009Z,384
2022-09-07T07:08:03.013Z,412
2022-09-07T07:09:03.004Z,632
2022-09-07T07:10:03.016Z,812
2022-09-07T07:11:03.049Z,388
2022-09-07T07:12:03.042Z,600
2022-09-07T07:13:03.411Z,380
2022-09-07T07:14:06.083Z,352
2022-09-07T07:15:03.030Z,356
2022-09-07T07:16:03.285Z,356
2022-09-07T07:17:03.045Z,344
2022-09-07T07:18:25.296Z,316
2022-09-07T07:19:03.028Z,308
2022-09-07T07:20:03.043Z,308
2022-09-07T07:21:03.060Z,336
2022-09-07T07:22:51.154Z,424
2022-09-07T07:23:03.031Z,428
2022-09-07T07:24:08.239Z,532
2022-09-07T07:25:03.096Z,548
2022-09-07T07:26:03.058Z,484
2022-09-07T07:27:03.044Z,512
2022-09-07T07:29:02.827Z,532
2022-09-07T07:29:17.181Z,692
2022-09-07T07:30:13.294Z,2752
2022-09-07T07:31:20.774Z,2616
2022-09-07T07:32:13.223Z,432
2022-09-07T07:33:14.233Z,432
2022-09-07T07:34:13.671Z,2616
2022-09-07T07:35:13.231Z,2512
2022-09-07T07:36:16.066Z,2660
2022-09-07T07:37:13.252Z,2712
2022-09-07T07:40:40.039Z,436
2022-09-07T07:42:07.348Z,2440
2022-09-07T07:42:28.938Z,2424
2022-09-07T07:43:35.737Z,2348
2022-09-07T07:44:29.110Z,2292
2022-09-07T07:46:04.000Z,2268
2022-09-07T07:46:32.234Z,2236
2022-09-07T07:47:29.112Z,2184
2022-09-07T07:48:31.903Z,2260
2022-09-07T07:49:29.210Z,2220
2022-09-07T07:50:47.619Z,2140
2022-09-07T07:51:29.571Z,2076
2022-09-07T07:53:44.577Z,2032
2022-09-07T07:53:57.827Z,2020
2022-09-07T07:54:56.794Z,1980
2022-09-07T07:55:56.937Z,1928
2022-09-07T07:56:56.945Z,1892
2022-09-07T07:57:56.926Z,1828
2022-09-07T07:58:56.933Z,1808
2022-09-07T07:59:56.919Z,1760
2022-09-07T08:01:02.380Z,1740
2022-09-07T08:02:00.519Z,1536
2022-09-07T08:02:57.191Z,1568
2022-09-07T08:03:56.939Z,1528
2022-09-07T08:04:57.080Z,1496
2022-09-07T08:05:56.930Z,1460
2022-09-07T08:06:58.694Z,1440
2022-09-07T08:07:56.945Z,1424
2022-09-07T08:08:56.465Z,1516
2022-09-07T08:09:56.491Z,1460
2022-09-07T08:10:56.475Z,1460
2022-09-07T08:11:56.501Z,1348
2022-09-07T08:12:59.242Z,1440
2022-09-07T08:13:56.517Z,1424
2022-09-07T08:14:56.627Z,1376
2022-09-07T08:15:56.923Z,1400
2022-09-07T08:16:56.652Z,1324
2022-09-07T08:17:59.559Z,1332
2022-09-07T08:18:56.997Z,1332
2022-09-07T08:19:56.972Z,1324
2022-09-07T08:20:57.159Z,1336
2022-09-07T08:21:56.657Z,1316
2022-09-07T08:22:56.805Z,1316
2022-09-07T08:23:59.787Z,1164
2022-09-07T08:24:56.992Z,1308
2022-09-07T08:25:56.987Z,1292
2022-09-07T08:26:56.993Z,1248
2022-09-07T08:27:56.970Z,1256
2022-09-07T08:28:59.748Z,1268
2022-09-07T08:29:57.007Z,1220
2022-09-07T08:30:56.817Z,1180
2022-09-07T08:31:57.195Z,1228
2022-09-07T08:32:57.020Z,1260
2022-09-07T08:33:56.989Z,1284
2022-09-07T08:35:00.133Z,1284
2022-09-07T08:35:57.107Z,1316
2022-09-07T08:36:57.155Z,1308
2022-09-07T08:37:56.852Z,1292
2022-09-07T08:38:57.005Z,1296
2022-09-07T08:40:00.219Z,1288
2022-09-07T08:40:57.024Z,1288
2022-09-07T08:41:57.035Z,1292
2022-09-07T08:42:57.012Z,1292
2022-09-07T08:43:57.009Z,1288
2022-09-07T08:44:57.020Z,1296
2022-09-07T08:46:00.228Z,1272
2022-09-07T08:46:57.568Z,1172
2022-09-07T08:47:57.030Z,1296
2022-09-07T08:48:57.020Z,1272
2022-09-07T08:49:57.037Z,1248
2022-09-07T08:51:00.121Z,1192
2022-09-07T08:51:57.062Z,1016
2022-09-07T08:52:57.938Z,1120
2022-09-07T08:53:57.040Z,1116
2022-09-07T08:54:57.039Z,1148
2022-09-07T08:55:57.058Z,1204
2022-09-07T08:57:27.063Z,1248
2022-09-07T08:57:57.043Z,1276
2022-09-07T08:58:57.499Z,1256
2022-09-07T08:59:57.049Z,1240
2022-09-07T09:01:36.991Z,1216
2022-09-07T09:02:46.369Z,1236
2022-09-07T09:04:23.076Z,1120
2022-09-07T09:05:21.663Z,1256
2022-09-07T09:05:41.123Z,1260
2022-09-07T09:06:38.705Z,1284
2022-09-07T09:07:38.144Z,1140
2022-09-07T09:08:38.198Z,1208
2022-09-07T09:09:38.105Z,1028
2022-09-07T09:10:40.876Z,1028
2022-09-07T09:11:38.095Z,1188
2022-09-07T09:12:43.453Z,1100
2022-09-07T09:13:38.273Z,1000
2022-09-07T09:14:37.869Z,1004
2022-09-07T09:15:38.069Z,1004
2022-09-07T09:16:45.167Z,1008
2022-09-07T09:17:38.124Z,1020
2022-09-07T09:18:38.219Z,904
2022-09-07T09:19:38.110Z,904
2022-09-07T09:20:37.936Z,936
2022-09-07T09:21:40.815Z,964
2022-09-07T09:22:38.130Z,1096
2022-09-07T09:23:38.107Z,1208
2022-09-07T09:24:38.224Z,1220
2022-09-07T09:25:38.129Z,1164
2022-09-07T09:26:38.163Z,1148
2022-09-07T09:27:40.992Z,1216
2022-09-07T09:28:40.438Z,1072
2022-09-07T09:29:38.130Z,1052
2022-09-07T09:30:38.150Z,1152
2022-09-07T09:31:38.626Z,1156
2022-09-07T09:32:39.800Z,1024
2022-09-07T09:33:38.253Z,1132
2022-09-07T09:34:41.871Z,980
2022-09-07T09:35:38.145Z,1036
2022-09-07T09:36:38.193Z,1100
2022-09-07T09:37:38.198Z,1172
2022-09-07T09:38:41.263Z,1168
2022-09-07T09:39:38.435Z,1160
2022-09-07T09:40:38.344Z,1108
2022-09-07T09:41:38.154Z,1120
2022-09-07T09:42:38.204Z,992
2022-09-07T09:43:40.956Z,1076
2022-09-07T09:44:38.167Z,1092
2022-09-07T09:46:19.124Z,1072
2022-09-07T09:47:38.879Z,1100
2022-09-07T09:48:38.303Z,744
2022-09-07T09:49:41.037Z,536
2022-09-07T09:52:58.913Z,556
2022-09-07T09:53:56.583Z,744
2022-09-07T09:55:12.003Z,1424
2022-09-07T09:55:56.681Z,1064
2022-09-07T09:56:56.573Z,776
2022-09-07T10:00:33.786Z,504
2022-09-07T10:01:35.355Z,488
2022-09-07T10:04:06.310Z,468
2022-09-07T10:04:59.515Z,472
2022-09-07T10:05:59.188Z,472
2022-09-07T10:06:59.353Z,464
2022-09-07T10:07:59.353Z,456
2022-09-07T10:08:59.370Z,444
2022-09-07T10:09:59.327Z,448
2022-09-07T10:10:59.476Z,456
2022-09-07T10:12:15.632Z,480
2022-09-07T10:13:02.140Z,1172
2022-09-07T10:13:59.389Z,500
2022-09-07T10:14:59.353Z,468
2022-09-07T10:15:59.627Z,520
2022-09-07T10:17:01.886Z,944
2022-09-07T10:17:59.438Z,1240
2022-09-07T10:18:59.382Z,540
2022-09-07T10:19:59.597Z,1268
2022-09-07T10:20:59.368Z,1224
2022-09-07T10:21:59.362Z,856
2022-09-07T10:22:59.378Z,1124
2022-09-07T10:24:02.433Z,1232
2022-09-07T10:24:59.367Z,1204
2022-09-07T10:25:59.387Z,1240
2022-09-07T10:26:59.770Z,472
2022-09-07T10:27:59.364Z,1264
2022-09-07T10:29:17.275Z,1200
2022-09-07T10:29:59.369Z,960
2022-09-07T10:30:59.569Z,1200
2022-09-07T10:31:59.406Z,1280
2022-09-07T10:32:59.383Z,1132
2022-09-07T10:34:30.887Z,1296
2022-09-07T10:34:59.404Z,1092
2022-09-07T10:35:59.387Z,1168
2022-09-07T10:36:59.400Z,1204
2022-09-07T10:37:59.399Z,456
2022-09-07T10:38:59.406Z,540
2022-09-07T10:40:05.560Z,1004
2022-09-07T10:40:59.404Z,524
2022-09-07T10:41:59.409Z,416
2022-09-07T10:43:32.629Z,476
2022-09-07T10:43:59.449Z,1016
2022-09-07T10:44:59.434Z,544
2022-09-07T10:45:59.571Z,748
2022-09-07T10:47:07.173Z,444
2022-09-07T10:47:59.413Z,568
2022-09-07T10:48:59.438Z,1232
2022-09-07T10:50:29.524Z,672
2022-09-07T10:51:13.609Z,988
2022-09-07T10:51:59.431Z,1044
2022-09-07T10:52:59.427Z,1200
2022-09-07T10:54:37.883Z,1164
2022-09-07T10:54:59.634Z,1116
2022-09-07T10:55:59.434Z,1172
2022-09-07T10:56:59.443Z,772
2022-09-07T10:57:59.471Z,616
2022-09-07T10:59:15.052Z,452
2022-09-07T11:00:16.115Z,640
2022-09-07T11:00:59.436Z,1232
2022-09-07T11:02:02.340Z,1196
2022-09-07T11:03:30.680Z,800
2022-09-07T11:03:59.833Z,1076
2022-09-07T11:04:59.438Z,556
2022-09-07T11:05:59.478Z,676
2022-09-07T11:07:02.511Z,1152
2022-09-07T11:07:59.447Z,1076
2022-09-07T11:09:29.476Z,408
2022-09-07T11:09:59.460Z,496
2022-09-07T11:10:59.470Z,516
2022-09-07T11:12:15.014Z,580
2022-09-07T11:13:02.250Z,1032
2022-09-07T11:14:19.499Z,884
2022-09-07T11:14:59.546Z,1084
2022-09-07T11:15:59.786Z,1088
2022-09-07T11:17:00.227Z,1100
2022-09-07T11:18:02.477Z,1104
2022-09-07T11:19:40.417Z,1060
2022-09-07T11:19:59.766Z,1060
2022-09-07T11:20:59.638Z,876
2022-09-07T11:22:06.577Z,1092
2022-09-07T11:22:59.509Z,816
2022-09-07T11:24:02.819Z,568
2022-09-07T11:25:36.920Z,320
2022-09-07T11:25:59.478Z,304
2022-09-07T11:26:59.489Z,300
2022-09-07T11:27:59.492Z,316
2022-09-07T11:29:34.456Z,360
2022-09-07T11:29:59.486Z,376
2022-09-07T11:31:05.399Z,448
2022-09-07T11:31:59.513Z,476
2022-09-07T11:32:59.499Z,1232
2022-09-07T11:34:29.842Z,1188
2022-09-07T11:35:59.516Z,1064
2022-09-07T11:36:59.496Z,1200
2022-09-07T11:37:59.549Z,1188
2022-09-07T11:38:59.508Z,984
2022-09-07T11:40:03.123Z,1064
2022-09-07T11:40:59.506Z,1044
2022-09-07T11:42:00.466Z,1108
2022-09-07T11:42:59.535Z,1112
2022-09-07T11:43:59.589Z,1104
2022-09-07T11:44:59.839Z,1068
2022-09-07T11:46:02.921Z,1056
2022-09-07T11:46:59.432Z,464
2022-09-07T11:47:59.540Z,980
2022-09-07T11:48:59.545Z,396
2022-09-07T11:50:05.314Z,672
2022-09-07T11:51:02.396Z,1024
2022-09-07T11:52:04.906Z,1052
2022-09-07T11:53:00.797Z,1028
2022-09-07T11:53:59.538Z,896
2022-09-07T11:54:59.691Z,904
2022-09-07T11:55:59.556Z,720
2022-09-07T11:57:02.464Z,832
2022-09-07T11:58:02.541Z,520
2022-09-07T11:58:59.552Z,1012
2022-09-07T11:59:59.578Z,1020
2022-09-07T12:00:59.648Z,1024
2022-09-07T12:02:02.375Z,980
2022-09-07T12:03:07.199Z,992
2022-09-07T12:04:00.199Z,324
2022-09-07T12:05:03.517Z,252
2022-09-07T12:05:59.565Z,248
2022-09-07T12:06:59.570Z,256
2022-09-07T12:08:02.384Z,256
2022-09-07T12:08:59.569Z,296
2022-09-07T12:09:59.629Z,912
2022-09-07T12:10:59.588Z,960
2022-09-07T12:11:59.568Z,1008
2022-09-07T12:13:02.529Z,988
2022-09-07T12:13:59.585Z,1020
2022-09-07T12:14:59.618Z,1024
2022-09-07T12:15:59.975Z,1052
2022-09-07T12:16:59.666Z,1032
2022-09-07T12:17:59.575Z,1028
2022-09-07T12:18:59.645Z,408
2022-09-07T12:19:59.601Z,976
2022-09-07T12:20:59.603Z,972
2022-09-07T12:21:59.588Z,972
2022-09-07T12:23:05.931Z,996
2022-09-07T12:23:59.611Z,964
2022-09-07T12:24:59.742Z,996
2022-09-07T12:25:59.713Z,924
2022-09-07T12:26:59.634Z,1032
2022-09-07T12:27:59.603Z,1028
2022-09-07T12:28:59.607Z,1028
2022-09-07T12:29:59.640Z,976
2022-09-07T12:30:59.869Z,1000
2022-09-07T12:33:01.767Z,960
2022-09-07T12:33:11.495Z,928
2022-09-07T12:34:11.403Z,900
2022-09-07T12:35:14.847Z,992
2022-09-07T12:36:11.342Z,640
2022-09-07T12:37:17.166Z,876
2022-09-07T12:38:11.335Z,936
2022-09-07T12:39:11.342Z,968
2022-09-07T12:40:11.839Z,940
2022-09-07T12:41:14.272Z,924
2022-09-07T12:42:42.246Z,940
2022-09-07T12:43:16.909Z,932
2022-09-07T12:44:11.352Z,944
2022-09-07T12:45:11.372Z,948
2022-09-07T12:46:12.535Z,988
2022-09-07T12:47:11.403Z,948
2022-09-07T12:48:15.079Z,944
2022-09-07T12:49:11.393Z,964
2022-09-07T12:50:12.451Z,936
2022-09-07T12:51:11.442Z,884
2022-09-07T12:52:23.185Z,988
2022-09-07T12:53:11.586Z,992
2022-09-07T12:54:11.361Z,980
2022-09-07T12:56:15.456Z,236
2022-09-07T12:56:25.450Z,356
2022-09-07T12:57:40.725Z,208
2022-09-07T12:58:28.353Z,196
2022-09-07T12:59:33.020Z,204
2022-09-07T13:00:25.433Z,216
2022-09-07T13:01:25.990Z,248
2022-09-07T13:02:25.994Z,288
2022-09-07T13:03:56.688Z,420
2022-09-07T13:04:28.432Z,1076
2022-09-07T13:05:25.440Z,304
2022-09-07T13:07:06.439Z,272
2022-09-07T13:07:25.460Z,268
2022-09-07T13:08:25.477Z,332
2022-09-07T13:09:28.187Z,284
2022-09-07T13:10:25.812Z,320
2022-09-07T13:11:25.448Z,568
2022-09-07T13:13:03.845Z,252
2022-09-07T13:14:11.359Z,252
2022-09-07T13:14:25.866Z,252
2022-09-07T13:15:32.741Z,256
2022-09-07T13:16:26.299Z,272
2022-09-07T13:17:28.838Z,288
2022-09-07T13:18:25.508Z,296
2022-09-07T13:19:25.352Z,284
2022-09-07T13:20:28.918Z,268
2022-09-07T13:21:26.857Z,264
2022-09-07T13:22:25.449Z,276
2022-09-07T13:23:25.384Z,888
2022-09-07T13:24:55.680Z,764
2022-09-07T13:25:25.462Z,772
2022-09-07T13:26:28.537Z,220
2022-09-07T13:27:25.461Z,192
2022-09-07T13:28:25.952Z,224
2022-09-07T13:29:26.391Z,800
2022-09-07T13:30:25.457Z,772
2022-09-07T13:31:29.345Z,880
2022-09-07T13:33:10.458Z,808
2022-09-07T13:33:25.467Z,792
2022-09-07T13:34:25.468Z,800
2022-09-07T13:35:25.654Z,804
2022-09-07T13:36:25.517Z,828
2022-09-07T13:37:25.489Z,808
2022-09-07T13:38:25.468Z,712
2022-09-07T13:39:25.478Z,824
2022-09-07T13:40:25.600Z,688
2022-09-07T13:41:25.509Z,788
2022-09-07T13:42:30.595Z,836
2022-09-07T13:43:25.515Z,800
2022-09-07T13:44:31.021Z,812
2022-09-07T13:45:25.532Z,848
2022-09-07T13:46:25.891Z,852
2022-09-07T13:47:25.599Z,856
2022-09-07T13:48:25.504Z,836
2022-09-07T13:49:25.495Z,848
2022-09-07T13:50:25.507Z,848
2022-09-07T13:51:25.597Z,844
2022-09-07T13:52:25.554Z,860
2022-09-07T13:53:25.511Z,848
2022-09-07T13:54:25.515Z,836
2022-09-07T13:55:30.766Z,856
2022-09-07T13:56:25.523Z,836
2022-09-07T13:57:25.515Z,836
2022-09-07T13:58:25.516Z,848
2022-09-07T13:59:25.550Z,220
2022-09-07T14:00:25.553Z,684
2022-09-07T14:01:25.920Z,816
2022-09-07T14:02:25.800Z,812
2022-09-07T14:03:25.538Z,816
2022-09-07T14:04:25.524Z,804
2022-09-07T14:05:25.537Z,820
2022-09-07T14:06:25.551Z,812
2022-09-07T14:07:25.614Z,824
2022-09-07T14:08:25.568Z,808
2022-09-07T14:09:28.580Z,816
2022-09-07T14:10:25.540Z,808
2022-09-07T14:11:25.432Z,804
2022-09-07T14:12:25.565Z,792
2022-09-07T14:13:25.553Z,800
2022-09-07T14:14:28.659Z,796
2022-09-07T14:15:25.541Z,760
2022-09-07T14:16:25.759Z,756
2022-09-07T14:17:25.550Z,772
2022-09-07T14:18:25.563Z,416